sensor_id;sensor_type;location;lat;lon;timestamp;P1;durP1;ratioP1;P2;durP2;ratioP2
58240;SDS011;45058;55.772;38.224;2023-03-04T00:01:45;9.73;;;4.20;;
58240;SDS011;45058;55.772;38.224;2023-03-04T00:04:11;11.67;;;4.53;;
58240;SDS011;45058;55.772;38.224;2023-03-04T00:06:37;12.10;;;4.70;;
58240;SDS011;45058;55.772;38.224;2023-03-04T00:09:04;13.03;;;5.13;;
58240;SDS011;45058;55.772;38.224;2023-03-04T00:11:30;10.03;;;4.27;;
58240;SDS011;45058;55.772;38.224;2023-03-04T00:13:56;10.87;;;4.00;;
58240;SDS011;45058;55.772;38.224;2023-03-04T00:16:23;10.20;;;3.77;;
58240;SDS011;45058;55.772;38.224;2023-03-04T00:18:53;10.10;;;4.20;;
58240;SDS011;45058;55.772;38.224;2023-03-04T00:21:19;13.37;;;4.40;;
58240;SDS011;45058;55.772;38.224;2023-03-04T00:23:45;13.50;;;5.07;;
58240;SDS011;45058;55.772;38.224;2023-03-04T00:26:11;10.37;;;4.53;;
58240;SDS011;45058;55.772;38.224;2023-03-04T00:28:39;13.20;;;4.70;;
58240;SDS011;45058;55.772;38.224;2023-03-04T00:31:05;10.70;;;4.30;;
58240;SDS011;45058;55.772;38.224;2023-03-04T00:33:32;13.07;;;4.97;;
58240;SDS011;45058;55.772;38.224;2023-03-04T00:35:58;11.03;;;4.83;;
58240;SDS011;45058;55.772;38.224;2023-03-04T00:38:25;10.40;;;5.50;;
58240;SDS011;45058;55.772;38.224;2023-03-04T00:40:51;13.43;;;5.50;;
58240;SDS011;45058;55.772;38.224;2023-03-04T00:43:18;11.70;;;5.40;;
58240;SDS011;45058;55.772;38.224;2023-03-04T00:45:44;10.40;;;5.00;;
58240;SDS011;45058;55.772;38.224;2023-03-04T00:48:10;10.97;;;4.97;;
58240;SDS011;45058;55.772;38.224;2023-03-04T00:50:36;11.10;;;4.93;;
58240;SDS011;45058;55.772;38.224;2023-03-04T00:53:02;13.07;;;5.27;;
58240;SDS011;45058;55.772;38.224;2023-03-04T00:55:29;11.37;;;4.63;;
58240;SDS011;45058;55.772;38.224;2023-03-04T00:57:55;14.93;;;5.43;;
58240;SDS011;45058;55.772;38.224;2023-03-04T01:00:21;16.60;;;6.90;;
58240;SDS011;45058;55.772;38.224;2023-03-04T01:02:47;14.57;;;6.93;;
58240;SDS011;45058;55.772;38.224;2023-03-04T01:05:13;21.30;;;8.07;;
58240;SDS011;45058;55.772;38.224;2023-03-04T01:07:39;16.20;;;8.07;;
58240;SDS011;45058;55.772;38.224;2023-03-04T01:10:06;16.63;;;6.70;;
58240;SDS011;45058;55.772;38.224;2023-03-04T01:12:33;16.20;;;6.70;;
58240;SDS011;45058;55.772;38.224;2023-03-04T01:14:59;17.77;;;7.00;;
58240;SDS011;45058;55.772;38.224;2023-03-04T01:17:25;13.60;;;6.77;;
58240;SDS011;45058;55.772;38.224;2023-03-04T01:19:51;20.33;;;7.07;;
58240;SDS011;45058;55.772;38.224;2023-03-04T01:22:17;13.47;;;6.73;;
58240;SDS011;45058;55.772;38.224;2023-03-04T01:24:43;12.33;;;6.40;;
58240;SDS011;45058;55.772;38.224;2023-03-04T01:27:10;12.47;;;7.10;;
58240;SDS011;45058;55.772;38.224;2023-03-04T01:29:36;14.73;;;6.53;;
58240;SDS011;45058;55.772;38.224;2023-03-04T01:32:02;16.37;;;7.00;;
58240;SDS011;45058;55.772;38.224;2023-03-04T01:34:29;16.27;;;7.60;;
58240;SDS011;45058;55.772;38.224;2023-03-04T01:36:56;19.53;;;7.47;;
58240;SDS011;45058;55.772;38.224;2023-03-04T01:39:21;14.83;;;7.73;;
58240;SDS011;45058;55.772;38.224;2023-03-04T01:41:50;16.83;;;7.27;;
58240;SDS011;45058;55.772;38.224;2023-03-04T01:44:16;14.07;;;8.20;;
58240;SDS011;45058;55.772;38.224;2023-03-04T01:46:43;17.73;;;7.43;;
58240;SDS011;45058;55.772;38.224;2023-03-04T01:49:16;17.87;;;7.00;;
58240;SDS011;45058;55.772;38.224;2023-03-04T01:51:43;15.80;;;7.40;;
58240;SDS011;45058;55.772;38.224;2023-03-04T01:54:11;16.50;;;7.43;;
58240;SDS011;45058;55.772;38.224;2023-03-04T01:56:37;15.87;;;7.43;;
58240;SDS011;45058;55.772;38.224;2023-03-04T02:01:47;20.20;;;7.43;;
58240;SDS011;45058;55.772;38.224;2023-03-04T02:04:16;14.43;;;7.00;;
58240;SDS011;45058;55.772;38.224;2023-03-04T02:06:43;18.40;;;8.00;;
58240;SDS011;45058;55.772;38.224;2023-03-04T02:09:10;14.37;;;7.23;;
58240;SDS011;45058;55.772;38.224;2023-03-04T02:11:36;15.97;;;7.33;;
58240;SDS011;45058;55.772;38.224;2023-03-04T02:14:03;15.50;;;8.07;;
58240;SDS011;45058;55.772;38.224;2023-03-04T02:16:30;18.57;;;9.00;;
58240;SDS011;45058;55.772;38.224;2023-03-04T02:18:57;16.73;;;8.37;;
58240;SDS011;45058;55.772;38.224;2023-03-04T02:21:29;20.33;;;8.33;;
58240;SDS011;45058;55.772;38.224;2023-03-04T02:24:12;19.07;;;9.10;;
58240;SDS011;45058;55.772;38.224;2023-03-04T02:26:42;19.60;;;9.80;;
58240;SDS011;45058;55.772;38.224;2023-03-04T02:29:10;18.83;;;9.63;;
58240;SDS011;45058;55.772;38.224;2023-03-04T02:31:47;23.27;;;11.23;;
58240;SDS011;45058;55.772;38.224;2023-03-04T02:34:20;23.40;;;12.07;;
58240;SDS011;45058;55.772;38.224;2023-03-04T02:36:50;23.07;;;11.80;;
58240;SDS011;45058;55.772;38.224;2023-03-04T02:41:57;25.83;;;12.37;;
58240;SDS011;45058;55.772;38.224;2023-03-04T02:44:26;29.27;;;13.80;;
58240;SDS011;45058;55.772;38.224;2023-03-04T02:46:55;30.80;;;13.93;;
58240;SDS011;45058;55.772;38.224;2023-03-04T02:49:25;27.50;;;13.77;;
58240;SDS011;45058;55.772;38.224;2023-03-04T02:51:58;36.50;;;16.03;;
58240;SDS011;45058;55.772;38.224;2023-03-04T02:54:28;27.93;;;14.50;;
58240;SDS011;45058;55.772;38.224;2023-03-04T02:57:00;34.53;;;15.87;;
58240;SDS011;45058;55.772;38.224;2023-03-04T02:59:30;34.87;;;16.77;;
58240;SDS011;45058;55.772;38.224;2023-03-04T03:01:56;36.43;;;17.60;;
58240;SDS011;45058;55.772;38.224;2023-03-04T03:04:22;44.07;;;17.77;;
58240;SDS011;45058;55.772;38.224;2023-03-04T03:06:51;41.60;;;17.67;;
58240;SDS011;45058;55.772;38.224;2023-03-04T03:09:18;39.93;;;19.37;;
58240;SDS011;45058;55.772;38.224;2023-03-04T03:11:44;43.60;;;19.73;;
58240;SDS011;45058;55.772;38.224;2023-03-04T03:14:10;39.03;;;19.20;;
58240;SDS011;45058;55.772;38.224;2023-03-04T03:16:37;43.77;;;20.57;;
58240;SDS011;45058;55.772;38.224;2023-03-04T03:19:04;45.47;;;21.93;;
58240;SDS011;45058;55.772;38.224;2023-03-04T03:21:30;47.23;;;22.10;;
58240;SDS011;45058;55.772;38.224;2023-03-04T03:23:56;54.27;;;21.13;;
58240;SDS011;45058;55.772;38.224;2023-03-04T03:26:22;55.43;;;23.37;;
58240;SDS011;45058;55.772;38.224;2023-03-04T03:28:49;44.93;;;22.57;;
58240;SDS011;45058;55.772;38.224;2023-03-04T03:31:15;46.30;;;21.63;;
58240;SDS011;45058;55.772;38.224;2023-03-04T03:33:45;55.47;;;23.27;;
58240;SDS011;45058;55.772;38.224;2023-03-04T03:36:11;52.07;;;22.27;;
58240;SDS011;45058;55.772;38.224;2023-03-04T03:38:37;41.47;;;20.40;;
58240;SDS011;45058;55.772;38.224;2023-03-04T03:41:03;45.40;;;21.07;;
58240;SDS011;45058;55.772;38.224;2023-03-04T03:43:29;40.57;;;20.20;;
58240;SDS011;45058;55.772;38.224;2023-03-04T03:45:55;46.40;;;20.77;;
58240;SDS011;45058;55.772;38.224;2023-03-04T03:48:21;45.63;;;21.23;;
58240;SDS011;45058;55.772;38.224;2023-03-04T03:50:47;39.23;;;20.97;;
58240;SDS011;45058;55.772;38.224;2023-03-04T03:53:13;41.60;;;21.33;;
58240;SDS011;45058;55.772;38.224;2023-03-04T03:55:39;39.33;;;20.73;;
58240;SDS011;45058;55.772;38.224;2023-03-04T03:58:05;42.17;;;20.20;;
58240;SDS011;45058;55.772;38.224;2023-03-04T04:00:31;46.43;;;20.77;;
58240;SDS011;45058;55.772;38.224;2023-03-04T04:02:57;39.57;;;18.87;;
58240;SDS011;45058;55.772;38.224;2023-03-04T04:05:23;34.53;;;16.97;;
58240;SDS011;45058;55.772;38.224;2023-03-04T04:07:49;35.87;;;18.23;;
58240;SDS011;45058;55.772;38.224;2023-03-04T04:10:15;35.07;;;18.27;;
58240;SDS011;45058;55.772;38.224;2023-03-04T04:12:41;43.80;;;20.50;;
58240;SDS011;45058;55.772;38.224;2023-03-04T04:15:08;38.90;;;19.40;;
58240;SDS011;45058;55.772;38.224;2023-03-04T04:17:35;40.57;;;19.77;;
58240;SDS011;45058;55.772;38.224;2023-03-04T04:20:02;48.03;;;21.30;;
58240;SDS011;45058;55.772;38.224;2023-03-04T04:22:28;61.17;;;23.13;;
58240;SDS011;45058;55.772;38.224;2023-03-04T04:24:54;70.63;;;24.97;;
58240;SDS011;45058;55.772;38.224;2023-03-04T04:27:20;71.00;;;27.27;;
58240;SDS011;45058;55.772;38.224;2023-03-04T04:29:47;67.53;;;26.17;;
58240;SDS011;45058;55.772;38.224;2023-03-04T04:32:13;75.60;;;26.90;;
58240;SDS011;45058;55.772;38.224;2023-03-04T04:34:39;68.97;;;28.67;;
58240;SDS011;45058;55.772;38.224;2023-03-04T04:37:05;65.70;;;25.77;;
58240;SDS011;45058;55.772;38.224;2023-03-04T04:39:34;71.20;;;28.50;;
58240;SDS011;45058;55.772;38.224;2023-03-04T04:42:24;60.13;;;24.87;;
58240;SDS011;45058;55.772;38.224;2023-03-04T04:45:17;62.47;;;23.97;;
58240;SDS011;45058;55.772;38.224;2023-03-04T04:47:43;53.70;;;21.63;;
58240;SDS011;45058;55.772;38.224;2023-03-04T04:50:09;47.13;;;20.50;;
58240;SDS011;45058;55.772;38.224;2023-03-04T04:52:35;57.33;;;22.13;;
58240;SDS011;45058;55.772;38.224;2023-03-04T04:55:02;53.60;;;21.63;;
58240;SDS011;45058;55.772;38.224;2023-03-04T04:57:28;58.73;;;22.83;;
58240;SDS011;45058;55.772;38.224;2023-03-04T04:59:54;58.03;;;24.40;;
58240;SDS011;45058;55.772;38.224;2023-03-04T05:02:20;50.93;;;22.67;;
58240;SDS011;45058;55.772;38.224;2023-03-04T05:04:46;50.43;;;21.87;;
58240;SDS011;45058;55.772;38.224;2023-03-04T05:07:12;45.43;;;21.10;;
58240;SDS011;45058;55.772;38.224;2023-03-04T05:09:38;45.53;;;21.20;;
58240;SDS011;45058;55.772;38.224;2023-03-04T05:12:04;49.70;;;23.20;;
58240;SDS011;45058;55.772;38.224;2023-03-04T05:14:30;47.77;;;21.43;;
58240;SDS011;45058;55.772;38.224;2023-03-04T05:16:56;44.03;;;22.77;;
58240;SDS011;45058;55.772;38.224;2023-03-04T05:19:22;35.43;;;19.10;;
58240;SDS011;45058;55.772;38.224;2023-03-04T05:21:48;34.50;;;18.23;;
58240;SDS011;45058;55.772;38.224;2023-03-04T05:24:14;33.70;;;18.03;;
58240;SDS011;45058;55.772;38.224;2023-03-04T05:26:40;36.83;;;18.83;;
58240;SDS011;45058;55.772;38.224;2023-03-04T05:29:06;36.77;;;19.77;;
58240;SDS011;45058;55.772;38.224;2023-03-04T05:31:32;28.47;;;16.23;;
58240;SDS011;45058;55.772;38.224;2023-03-04T05:33:58;28.43;;;16.07;;
58240;SDS011;45058;55.772;38.224;2023-03-04T05:36:24;25.83;;;15.40;;
58240;SDS011;45058;55.772;38.224;2023-03-04T05:38:50;26.70;;;14.23;;
58240;SDS011;45058;55.772;38.224;2023-03-04T05:41:16;27.00;;;14.50;;
58240;SDS011;45058;55.772;38.224;2023-03-04T05:43:44;24.30;;;14.97;;
58240;SDS011;45058;55.772;38.224;2023-03-04T05:46:14;27.60;;;16.43;;
58240;SDS011;45058;55.772;38.224;2023-03-04T05:48:41;29.07;;;16.80;;
58240;SDS011;45058;55.772;38.224;2023-03-04T05:51:08;35.37;;;18.80;;
58240;SDS011;45058;55.772;38.224;2023-03-04T05:53:34;30.50;;;17.70;;
58240;SDS011;45058;55.772;38.224;2023-03-04T05:56:08;33.50;;;17.37;;
58240;SDS011;45058;55.772;38.224;2023-03-04T05:58:35;29.90;;;16.37;;
58240;SDS011;45058;55.772;38.224;2023-03-04T06:01:01;28.23;;;16.37;;
58240;SDS011;45058;55.772;38.224;2023-03-04T06:03:27;31.13;;;17.43;;
58240;SDS011;45058;55.772;38.224;2023-03-04T06:05:53;30.20;;;17.13;;
58240;SDS011;45058;55.772;38.224;2023-03-04T06:08:20;34.70;;;18.70;;
58240;SDS011;45058;55.772;38.224;2023-03-04T06:10:46;33.77;;;17.67;;
58240;SDS011;45058;55.772;38.224;2023-03-04T06:13:12;27.23;;;15.23;;
58240;SDS011;45058;55.772;38.224;2023-03-04T06:15:38;26.10;;;14.37;;
58240;SDS011;45058;55.772;38.224;2023-03-04T06:18:05;27.77;;;15.17;;
58240;SDS011;45058;55.772;38.224;2023-03-04T06:20:32;30.27;;;16.40;;
58240;SDS011;45058;55.772;38.224;2023-03-04T06:22:58;30.30;;;15.63;;
58240;SDS011;45058;55.772;38.224;2023-03-04T06:25:24;22.97;;;14.03;;
58240;SDS011;45058;55.772;38.224;2023-03-04T06:27:51;24.50;;;12.67;;
58240;SDS011;45058;55.772;38.224;2023-03-04T06:30:17;23.90;;;11.87;;
58240;SDS011;45058;55.772;38.224;2023-03-04T06:32:43;21.10;;;11.70;;
58240;SDS011;45058;55.772;38.224;2023-03-04T06:35:11;17.67;;;10.63;;
58240;SDS011;45058;55.772;38.224;2023-03-04T06:37:37;17.17;;;9.93;;
58240;SDS011;45058;55.772;38.224;2023-03-04T06:40:03;15.30;;;10.77;;
58240;SDS011;45058;55.772;38.224;2023-03-04T06:42:30;16.23;;;9.97;;
58240;SDS011;45058;55.772;38.224;2023-03-04T06:44:56;20.93;;;9.77;;
58240;SDS011;45058;55.772;38.224;2023-03-04T06:47:22;17.40;;;9.67;;
58240;SDS011;45058;55.772;38.224;2023-03-04T06:49:48;19.37;;;9.23;;
58240;SDS011;45058;55.772;38.224;2023-03-04T06:52:14;16.17;;;9.03;;
58240;SDS011;45058;55.772;38.224;2023-03-04T06:54:40;16.83;;;9.53;;
58240;SDS011;45058;55.772;38.224;2023-03-04T06:57:06;17.83;;;8.80;;
58240;SDS011;45058;55.772;38.224;2023-03-04T06:59:32;18.83;;;8.80;;
58240;SDS011;45058;55.772;38.224;2023-03-04T07:01:58;14.37;;;9.37;;
58240;SDS011;45058;55.772;38.224;2023-03-04T07:04:24;15.50;;;9.57;;
58240;SDS011;45058;55.772;38.224;2023-03-04T07:06:50;15.97;;;9.33;;
58240;SDS011;45058;55.772;38.224;2023-03-04T07:09:17;15.73;;;9.10;;
58240;SDS011;45058;55.772;38.224;2023-03-04T07:11:43;16.90;;;9.33;;
58240;SDS011;45058;55.772;38.224;2023-03-04T07:14:09;15.13;;;8.40;;
58240;SDS011;45058;55.772;38.224;2023-03-04T07:16:35;21.67;;;9.10;;
58240;SDS011;45058;55.772;38.224;2023-03-04T07:19:02;16.67;;;9.10;;
58240;SDS011;45058;55.772;38.224;2023-03-04T07:21:28;13.67;;;8.33;;
58240;SDS011;45058;55.772;38.224;2023-03-04T07:23:54;12.10;;;6.67;;
58240;SDS011;45058;55.772;38.224;2023-03-04T07:26:20;10.07;;;6.57;;
58240;SDS011;45058;55.772;38.224;2023-03-04T07:28:46;11.23;;;6.07;;
58240;SDS011;45058;55.772;38.224;2023-03-04T07:31:32;10.60;;;5.90;;
58240;SDS011;45058;55.772;38.224;2023-03-04T07:34:00;9.53;;;5.57;;
58240;SDS011;45058;55.772;38.224;2023-03-04T07:36:28;10.03;;;4.53;;
58240;SDS011;45058;55.772;38.224;2023-03-04T07:38:54;10.23;;;5.60;;
58240;SDS011;45058;55.772;38.224;2023-03-04T07:41:21;6.37;;;4.57;;
58240;SDS011;45058;55.772;38.224;2023-03-04T07:43:49;13.40;;;5.23;;
58240;SDS011;45058;55.772;38.224;2023-03-04T07:46:15;7.47;;;4.43;;
58240;SDS011;45058;55.772;38.224;2023-03-04T07:48:42;11.30;;;5.33;;
58240;SDS011;45058;55.772;38.224;2023-03-04T07:51:12;7.33;;;4.80;;
58240;SDS011;45058;55.772;38.224;2023-03-04T07:53:42;7.27;;;4.70;;
58240;SDS011;45058;55.772;38.224;2023-03-04T07:56:14;9.03;;;4.23;;
58240;SDS011;45058;55.772;38.224;2023-03-04T07:58:42;8.63;;;4.10;;
58240;SDS011;45058;55.772;38.224;2023-03-04T08:01:13;8.40;;;4.77;;
58240;SDS011;45058;55.772;38.224;2023-03-04T08:03:41;8.10;;;3.90;;
58240;SDS011;45058;55.772;38.224;2023-03-04T08:06:07;7.10;;;4.23;;
58240;SDS011;45058;55.772;38.224;2023-03-04T08:08:35;9.77;;;4.50;;
58240;SDS011;45058;55.772;38.224;2023-03-04T08:11:08;6.77;;;4.17;;
58240;SDS011;45058;55.772;38.224;2023-03-04T08:13:36;8.68;;;3.75;;
58240;SDS011;45058;55.772;38.224;2023-03-04T08:16:03;7.53;;;4.33;;
58240;SDS011;45058;55.772;38.224;2023-03-04T08:18:30;8.97;;;4.37;;
58240;SDS011;45058;55.772;38.224;2023-03-04T08:20:56;7.47;;;3.73;;
58240;SDS011;45058;55.772;38.224;2023-03-04T08:23:22;6.93;;;3.23;;
58240;SDS011;45058;55.772;38.224;2023-03-04T08:25:49;5.47;;;3.57;;
58240;SDS011;45058;55.772;38.224;2023-03-04T08:28:15;6.70;;;3.20;;
58240;SDS011;45058;55.772;38.224;2023-03-04T08:30:42;10.67;;;3.43;;
58240;SDS011;45058;55.772;38.224;2023-03-04T08:33:08;7.80;;;3.97;;
58240;SDS011;45058;55.772;38.224;2023-03-04T08:35:39;7.93;;;3.43;;
58240;SDS011;45058;55.772;38.224;2023-03-04T08:38:20;7.10;;;3.30;;
58240;SDS011;45058;55.772;38.224;2023-03-04T08:41:09;11.13;;;3.37;;
58240;SDS011;45058;55.772;38.224;2023-03-04T08:43:48;9.27;;;2.80;;
58240;SDS011;45058;55.772;38.224;2023-03-04T08:46:28;5.90;;;2.63;;
58240;SDS011;45058;55.772;38.224;2023-03-04T08:49:19;5.33;;;3.10;;
58240;SDS011;45058;55.772;38.224;2023-03-04T08:52:05;7.23;;;3.07;;
58240;SDS011;45058;55.772;38.224;2023-03-04T08:54:40;7.27;;;2.97;;
58240;SDS011;45058;55.772;38.224;2023-03-04T08:57:18;5.97;;;2.37;;
58240;SDS011;45058;55.772;38.224;2023-03-04T09:00:09;3.67;;;2.40;;
58240;SDS011;45058;55.772;38.224;2023-03-04T09:02:54;12.13;;;2.90;;
58240;SDS011;45058;55.772;38.224;2023-03-04T09:05:36;7.57;;;2.40;;
58240;SDS011;45058;55.772;38.224;2023-03-04T09:08:17;5.57;;;2.87;;
58240;SDS011;45058;55.772;38.224;2023-03-04T09:11:00;7.40;;;3.03;;
58240;SDS011;45058;55.772;38.224;2023-03-04T09:13:41;5.30;;;2.83;;
58240;SDS011;45058;55.772;38.224;2023-03-04T09:16:21;4.83;;;2.70;;
58240;SDS011;45058;55.772;38.224;2023-03-04T09:18:59;5.43;;;2.63;;
58240;SDS011;45058;55.772;38.224;2023-03-04T09:21:39;7.33;;;2.93;;
58240;SDS011;45058;55.772;38.224;2023-03-04T09:24:21;6.37;;;3.57;;
58240;SDS011;45058;55.772;38.224;2023-03-04T09:27:01;6.40;;;3.63;;
58240;SDS011;45058;55.772;38.224;2023-03-04T09:29:44;6.93;;;4.10;;
58240;SDS011;45058;55.772;38.224;2023-03-04T09:32:22;6.40;;;3.33;;
58240;SDS011;45058;55.772;38.224;2023-03-04T09:34:56;4.17;;;2.80;;
58240;SDS011;45058;55.772;38.224;2023-03-04T09:37:47;7.57;;;3.13;;
58240;SDS011;45058;55.772;38.224;2023-03-04T09:40:28;6.37;;;3.13;;
58240;SDS011;45058;55.772;38.224;2023-03-04T09:43:24;5.45;;;3.10;;
58240;SDS011;45058;55.772;38.224;2023-03-04T09:46:09;7.57;;;2.50;;
58240;SDS011;45058;55.772;38.224;2023-03-04T09:49:04;4.70;;;2.47;;
58240;SDS011;45058;55.772;38.224;2023-03-04T09:51:50;5.53;;;3.20;;
58240;SDS011;45058;55.772;38.224;2023-03-04T09:57:22;10.20;;;3.70;;
58240;SDS011;45058;55.772;38.224;2023-03-04T10:00:04;5.63;;;2.80;;
58240;SDS011;45058;55.772;38.224;2023-03-04T10:05:20;6.83;;;3.03;;
58240;SDS011;45058;55.772;38.224;2023-03-04T10:07:55;7.00;;;3.20;;
58240;SDS011;45058;55.772;38.224;2023-03-04T10:10:28;4.93;;;3.13;;
58240;SDS011;45058;55.772;38.224;2023-03-04T10:13:01;6.47;;;3.13;;
58240;SDS011;45058;55.772;38.224;2023-03-04T10:18:12;4.83;;;2.73;;
58240;SDS011;45058;55.772;38.224;2023-03-04T10:20:46;6.13;;;3.10;;
58240;SDS011;45058;55.772;38.224;2023-03-04T10:23:24;7.30;;;2.97;;
58240;SDS011;45058;55.772;38.224;2023-03-04T10:25:51;6.00;;;3.37;;
58240;SDS011;45058;55.772;38.224;2023-03-04T10:28:20;7.43;;;3.17;;
58240;SDS011;45058;55.772;38.224;2023-03-04T10:33:31;5.77;;;3.60;;
58240;SDS011;45058;55.772;38.224;2023-03-04T10:38:48;8.60;;;4.10;;
58240;SDS011;45058;55.772;38.224;2023-03-04T10:41:20;8.77;;;3.50;;
58240;SDS011;45058;55.772;38.224;2023-03-04T10:43:50;6.97;;;3.30;;
58240;SDS011;45058;55.772;38.224;2023-03-04T10:46:26;5.60;;;3.60;;
58240;SDS011;45058;55.772;38.224;2023-03-04T10:48:52;6.13;;;3.77;;
58240;SDS011;45058;55.772;38.224;2023-03-04T10:51:23;10.27;;;4.40;;
58240;SDS011;45058;55.772;38.224;2023-03-04T10:53:50;6.60;;;4.20;;
58240;SDS011;45058;55.772;38.224;2023-03-04T11:01:54;6.47;;;2.57;;
58240;SDS011;45058;55.772;38.224;2023-03-04T11:04:23;5.40;;;2.93;;
58240;SDS011;45058;55.772;38.224;2023-03-04T11:06:50;5.73;;;2.63;;
58240;SDS011;45058;55.772;38.224;2023-03-04T11:09:24;6.20;;;2.93;;
58240;SDS011;45058;55.772;38.224;2023-03-04T11:11:54;5.67;;;3.00;;
58240;SDS011;45058;55.772;38.224;2023-03-04T11:17:01;7.83;;;3.63;;
58240;SDS011;45058;55.772;38.224;2023-03-04T11:19:37;5.30;;;3.27;;
58240;SDS011;45058;55.772;38.224;2023-03-04T11:22:04;4.80;;;2.63;;
58240;SDS011;45058;55.772;38.224;2023-03-04T11:24:32;6.03;;;3.40;;
58240;SDS011;45058;55.772;38.224;2023-03-04T11:27:04;5.77;;;3.00;;
58240;SDS011;45058;55.772;38.224;2023-03-04T11:29:38;4.87;;;2.60;;
58240;SDS011;45058;55.772;38.224;2023-03-04T11:32:10;5.40;;;3.10;;
58240;SDS011;45058;55.772;38.224;2023-03-04T11:34:41;4.63;;;2.83;;
58240;SDS011;45058;55.772;38.224;2023-03-04T11:37:29;7.00;;;2.75;;
58240;SDS011;45058;55.772;38.224;2023-03-04T11:43:05;6.47;;;2.87;;
58240;SDS011;45058;55.772;38.224;2023-03-04T11:45:43;8.77;;;2.70;;
58240;SDS011;45058;55.772;38.224;2023-03-04T11:48:43;6.57;;;3.63;;
58240;SDS011;45058;55.772;38.224;2023-03-04T11:56:54;6.20;;;3.08;;
58240;SDS011;45058;55.772;38.224;2023-03-04T11:59:31;11.97;;;3.77;;
58240;SDS011;45058;55.772;38.224;2023-03-04T12:04:44;7.13;;;4.00;;
58240;SDS011;45058;55.772;38.224;2023-03-04T12:13:18;7.57;;;3.60;;
58240;SDS011;45058;55.772;38.224;2023-03-04T12:27:23;3.83;;;2.40;;
58240;SDS011;45058;55.772;38.224;2023-03-04T12:35:40;4.57;;;2.90;;
58240;SDS011;45058;55.772;38.224;2023-03-04T12:40:49;6.63;;;2.63;;
58240;SDS011;45058;55.772;38.224;2023-03-04T12:44:21;6.47;;;3.13;;
58240;SDS011;45058;55.772;38.224;2023-03-04T12:46:25;9.23;;;3.27;;
58240;SDS011;45058;55.772;38.224;2023-03-04T12:54:24;8.33;;;5.00;;
58240;SDS011;45058;55.772;38.224;2023-03-04T12:59:35;10.27;;;5.53;;
58240;SDS011;45058;55.772;38.224;2023-03-04T13:05:14;13.63;;;6.80;;
58240;SDS011;45058;55.772;38.224;2023-03-04T13:10:31;24.13;;;13.90;;
58240;SDS011;45058;55.772;38.224;2023-03-04T13:12:58;36.07;;;18.23;;
58240;SDS011;45058;55.772;38.224;2023-03-04T13:23:28;8.77;;;5.67;;
58240;SDS011;45058;55.772;38.224;2023-03-04T13:38:22;6.67;;;4.93;;
58240;SDS011;45058;55.772;38.224;2023-03-04T13:43:42;7.23;;;4.23;;
58240;SDS011;45058;55.772;38.224;2023-03-04T13:51:31;4.87;;;2.20;;
58240;SDS011;45058;55.772;38.224;2023-03-04T13:54:13;6.80;;;3.03;;
58240;SDS011;45058;55.772;38.224;2023-03-04T13:56:51;12.10;;;6.47;;
58240;SDS011;45058;55.772;38.224;2023-03-04T13:59:42;12.77;;;8.97;;
58240;SDS011;45058;55.772;38.224;2023-03-04T14:02:12;13.00;;;8.47;;
58240;SDS011;45058;55.772;38.224;2023-03-04T14:07:21;3.92;;;2.25;;
58240;SDS011;45058;55.772;38.224;2023-03-04T14:10:23;9.23;;;4.00;;
58240;SDS011;45058;55.772;38.224;2023-03-04T14:12:51;8.20;;;3.60;;
58240;SDS011;45058;55.772;38.224;2023-03-04T14:15:26;7.27;;;3.90;;
58240;SDS011;45058;55.772;38.224;2023-03-04T14:17:54;5.43;;;2.80;;
58240;SDS011;45058;55.772;38.224;2023-03-04T14:20:26;9.37;;;3.57;;
58240;SDS011;45058;55.772;38.224;2023-03-04T14:23:00;10.83;;;4.90;;
58240;SDS011;45058;55.772;38.224;2023-03-04T14:25:30;9.93;;;6.00;;
58240;SDS011;45058;55.772;38.224;2023-03-04T14:28:11;4.07;;;3.00;;
58240;SDS011;45058;55.772;38.224;2023-03-04T14:30:39;4.97;;;3.20;;
58240;SDS011;45058;55.772;38.224;2023-03-04T14:33:07;5.37;;;3.33;;
58240;SDS011;45058;55.772;38.224;2023-03-04T14:35:35;7.37;;;3.37;;
58240;SDS011;45058;55.772;38.224;2023-03-04T14:38:06;5.83;;;3.70;;
58240;SDS011;45058;55.772;38.224;2023-03-04T14:40:47;8.73;;;5.30;;
58240;SDS011;45058;55.772;38.224;2023-03-04T14:43:18;9.70;;;5.83;;
58240;SDS011;45058;55.772;38.224;2023-03-04T14:45:49;6.50;;;4.40;;
58240;SDS011;45058;55.772;38.224;2023-03-04T14:48:35;8.27;;;5.20;;
58240;SDS011;45058;55.772;38.224;2023-03-04T14:51:02;12.40;;;6.93;;
58240;SDS011;45058;55.772;38.224;2023-03-04T14:53:29;10.03;;;5.57;;
58240;SDS011;45058;55.772;38.224;2023-03-04T14:56:03;10.17;;;5.87;;
58240;SDS011;45058;55.772;38.224;2023-03-04T14:58:33;15.07;;;9.30;;
58240;SDS011;45058;55.772;38.224;2023-03-04T15:01:03;9.77;;;5.43;;
58240;SDS011;45058;55.772;38.224;2023-03-04T15:04:05;7.00;;;5.17;;
58240;SDS011;45058;55.772;38.224;2023-03-04T15:06:51;7.20;;;5.30;;
58240;SDS011;45058;55.772;38.224;2023-03-04T15:09:22;5.43;;;4.30;;
58240;SDS011;45058;55.772;38.224;2023-03-04T15:11:57;8.70;;;5.77;;
58240;SDS011;45058;55.772;38.224;2023-03-04T15:14:44;9.17;;;6.20;;
58240;SDS011;45058;55.772;38.224;2023-03-04T15:19:58;9.73;;;6.40;;
58240;SDS011;45058;55.772;38.224;2023-03-04T15:25:17;8.37;;;6.80;;
58240;SDS011;45058;55.772;38.224;2023-03-04T15:27:44;10.07;;;6.47;;
58240;SDS011;45058;55.772;38.224;2023-03-04T15:30:15;10.53;;;6.77;;
58240;SDS011;45058;55.772;38.224;2023-03-04T15:32:46;12.37;;;7.10;;
58240;SDS011;45058;55.772;38.224;2023-03-04T15:35:13;11.40;;;7.73;;
58240;SDS011;45058;55.772;38.224;2023-03-04T15:37:41;11.97;;;7.23;;
58240;SDS011;45058;55.772;38.224;2023-03-04T15:40:15;12.23;;;8.03;;
58240;SDS011;45058;55.772;38.224;2023-03-04T15:43:09;13.67;;;8.30;;
58240;SDS011;45058;55.772;38.224;2023-03-04T15:45:38;12.57;;;8.70;;
58240;SDS011;45058;55.772;38.224;2023-03-04T15:48:06;9.50;;;7.03;;
58240;SDS011;45058;55.772;38.224;2023-03-04T15:50:35;12.33;;;7.30;;
58240;SDS011;45058;55.772;38.224;2023-03-04T15:53:05;13.60;;;8.23;;
58240;SDS011;45058;55.772;38.224;2023-03-04T15:55:33;11.00;;;8.40;;
58240;SDS011;45058;55.772;38.224;2023-03-04T15:58:00;14.00;;;9.57;;
58240;SDS011;45058;55.772;38.224;2023-03-04T16:00:27;13.30;;;8.67;;
58240;SDS011;45058;55.772;38.224;2023-03-04T16:02:55;14.60;;;9.60;;
58240;SDS011;45058;55.772;38.224;2023-03-04T16:05:21;15.17;;;10.10;;
58240;SDS011;45058;55.772;38.224;2023-03-04T16:07:48;9.17;;;6.83;;
58240;SDS011;45058;55.772;38.224;2023-03-04T16:10:23;11.17;;;8.03;;
58240;SDS011;45058;55.772;38.224;2023-03-04T16:12:52;15.83;;;9.17;;
58240;SDS011;45058;55.772;38.224;2023-03-04T16:15:20;12.80;;;9.50;;
58240;SDS011;45058;55.772;38.224;2023-03-04T16:17:50;15.60;;;9.43;;
58240;SDS011;45058;55.772;38.224;2023-03-04T16:20:18;17.67;;;10.13;;
58240;SDS011;45058;55.772;38.224;2023-03-04T16:22:47;16.67;;;10.53;;
58240;SDS011;45058;55.772;38.224;2023-03-04T16:25:15;13.87;;;9.80;;
58240;SDS011;45058;55.772;38.224;2023-03-04T16:27:43;13.93;;;10.50;;
58240;SDS011;45058;55.772;38.224;2023-03-04T16:30:14;14.57;;;10.03;;
58240;SDS011;45058;55.772;38.224;2023-03-04T16:32:45;13.23;;;9.38;;
58240;SDS011;45058;55.772;38.224;2023-03-04T16:35:12;15.50;;;10.53;;